FW9042 Weather Reports


Display with metric or nautical units.
time (UTC)temp
F
wind
direction
speed
MPH
gust
MPH
rain 1hr
in
rain 24hr
in
rain mn
in
humidity
%
barometer
mb
20211203215824 51 3 6.0 8.0 0.00 0.00 0.00 59 1021.3
20211203215323 51 27 4.0 5.0 0.00 0.00 0.00 58 1021.7
20211203214823 51 22 4.0 6.0 0.00 0.00 0.00 56 1021.6
20211203214323 52 32 5.0 7.0 0.00 0.00 0.00 54 1021.4
20211203213822 52 350 4.0 5.0 0.00 0.00 0.00 54 1021.6
20211203213320 53 302 5.0 6.0 0.00 0.00 0.00 53 1021.6
20211203212818 52 260 1.0 2.0 0.00 0.00 0.00 53 1021.4
20211203212318 52 68 4.0 5.0 0.00 0.00 0.00 53 1021.4
20211203211818 52 129 1.0 2.0 0.00 0.00 0.00 53 1021.3
20211203211317 52 73 3.0 3.0 0.00 0.00 0.00 52 1021.3
20211203210817 52 80 4.0 5.0 0.00 0.00 0.00 52 1021.4
20211203210317 53 339 2.0 2.0 0.00 0.00 0.00 50 1021.6
20211203205815 52 264 1.0 1.0 0.00 0.00 0.00 52 1021.3
20211203205314 53 263 2.0 2.0 0.00 0.00 0.00 52 1021.3
20211203204812 51 171 1.0 1.0 0.00 0.00 0.00 53 1021.6
20211203204311 52 84 2.0 2.0 0.00 0.00 0.00 53 1021.4
20211203203810 52 298 2.0 2.0 0.00 0.00 0.00 53 1021.7
20211203203308 51 185 1.0 1.0 0.00 0.00 0.00 53 1021.7
20211203202808 53 136 3.0 3.0 0.00 0.00 0.00 50 1021.7
20211203202307 52 192 3.0 3.0 0.00 0.00 0.00 52 1022.1
20211203201807 54 101 3.0 3.0 0.00 0.00 0.00 50 1021.9
20211203201307 53 173 2.0 2.0 0.00 0.00 0.00 51 1021.7
20211203200806 52 228 2.0 2.0 0.00 0.00 0.00 53 1022.0
20211203200306 53 225 0.0 0.0 0.00 0.00 0.00 52 1021.9
20211203195804 50 197 2.0 3.0 0.00 0.00 0.00 54 1022.1
20211203195306 50 208 1.0 1.0 0.00 0.00 0.00 57 1022.4
20211203194804 49 122 3.0 3.0 0.00 0.00 0.00 57 1022.4
20211203194302 49 72 3.0 3.0 0.00 0.00 0.00 58 1022.4
20211203193801 50 297 1.0 2.0 0.00 0.00 0.00 58 1022.6
20211203193301 49 309 4.0 5.0 0.00 0.00 0.00 59 1022.5
20211203192801 49 274 4.0 5.0 0.00 0.00 0.00 59 1022.6
20211203192300 49 94 2.0 2.0 0.00 0.00 0.00 58 1022.5
20211203191759 49 13 5.0 6.0 0.00 0.00 0.00 59 1022.8
20211203191258 49 122 3.0 5.0 0.00 0.00 0.00 56 1022.6
20211203190757 49 307 1.0 2.0 0.00 0.00 0.00 56 1022.8
20211203190257 49 345 4.0 5.0 0.00 0.00 0.00 57 1022.8
20211203185756 49 16 2.0 3.0 0.00 0.00 0.00 57 1022.8
20211203185255 49 155 3.0 3.0 0.00 0.00 0.00 56 1022.9
20211203184755 49 91 4.0 5.0 0.00 0.00 0.00 55 1023.1
20211203184255 50 162 3.0 3.0 0.00 0.00 0.00 54 1023.1
20211203183754 51 176 2.0 3.0 0.00 0.00 0.00 53 1023.2
20211203183252 51 196 2.0 2.0 0.00 0.00 0.00 52 1023.1
20211203182753 52 220 1.0 1.0 0.00 0.00 0.00 52 1023.2
20211203182252 52 207 1.0 2.0 0.00 0.00 0.00 51 1023.5
20211203181751 52 216 0.0 0.0 0.00 0.00 0.00 52 1023.3
20211203181249 51 216 1.0 2.0 0.00 0.00 0.00 53 1023.4
20211203180749 50 171 1.0 2.0 0.00 0.00 0.00 54 1023.4
20211203180248 51 195 1.0 1.0 0.00 0.00 0.00 55 1023.5
20211203175748 49 215 1.0 1.0 0.00 0.00 0.00 57 1023.6
20211203175248 49 210 1.0 1.0 0.00 0.00 0.00 57 1023.7
20211203174747 48 208 3.0 3.0 0.00 0.00 0.00 57 1024.1
20211203174246 48 209 2.0 2.0 0.00 0.00 0.00 59 1023.9
20211203173746 47 208 2.0 2.0 0.00 0.00 0.00 61 1023.6
20211203173244 47 208 1.0 1.0 0.00 0.00 0.00 60 1023.7
20211203172743 46 210 3.0 3.0 0.00 0.00 0.00 61 1023.7
20211203172242 46 185 2.0 2.0 0.00 0.00 0.00 63 1023.6
20211203171742 46 188 3.0 3.0 0.00 0.00 0.00 62 1023.9
20211203171242 45 196 2.0 3.0 0.00 0.00 0.00 64 1023.6
20211203170742 44 203 3.0 5.0 0.00 0.00 0.00 65 1023.6
20211203170241 44 186 5.0 7.0 0.00 0.00 0.00 65 1023.7
20211203165741 44 148 5.0 6.0 0.00 0.00 0.00 64 1023.7
20211203165240 44 147 4.0 5.0 0.00 0.00 0.00 65 1023.7
20211203164740 43 162 3.0 3.0 0.00 0.00 0.00 67 1023.9
20211203164240 44 211 3.0 3.0 0.00 0.00 0.00 64 1024.0
20211203163739 42 180 3.0 3.0 0.00 0.00 0.00 66 1023.9
20211203163239 42 171 3.0 3.0 0.00 0.00 0.00 67 1023.7
20211203162739 41 191 1.0 1.0 0.00 0.00 0.00 69 1024.0
20211203162238 41 160 4.0 5.0 0.00 0.00 0.00 69 1023.9
20211203161738 41 195 1.0 2.0 0.00 0.00 0.00 69 1024.0
20211203161238 41 166 2.0 2.0 0.00 0.00 0.00 70 1023.9
20211203160738 41 157 4.0 5.0 0.00 0.00 0.00 71 1023.6
20211203160236 41 163 2.0 5.0 0.00 0.00 0.00 70 1023.6
20211203155734 41 170 3.0 3.0 0.00 0.00 0.00 70 1023.6
20211203155233 41 180 3.0 5.0 0.00 0.00 0.00 70 1023.7
20211203154731 41 162 3.0 3.0 0.00 0.00 0.00 71 1023.4
20211203154231 42 172 3.0 5.0 0.00 0.00 0.00 70 1023.5
20211203153731 42 188 2.0 3.0 0.00 0.00 0.00 70 1023.2
20211203153231 41 186 1.0 2.0 0.00 0.00 0.00 71 1023.1
20211203152730 39 229 0.0 1.0 0.00 0.00 0.00 74 1023.3
20211203152230 38 302 3.0 3.0 0.00 0.00 0.00 75 1023.2
20211203151731 38 263 1.0 1.0 0.00 0.00 0.00 75 1023.1
20211203151230 37 267 1.0 1.0 0.00 0.00 0.00 77 1023.2
20211203150730 37 286 2.0 2.0 0.00 0.00 0.00 77 1023.1
20211203150230 37 234 1.0 1.0 0.00 0.00 0.00 77 1023.3
20211203145729 37 196 1.0 2.0 0.00 0.00 0.00 77 1023.1
20211203145229 37 192 2.0 2.0 0.00 0.00 0.00 78 1022.8
20211203144729 35 226 0.0 0.0 0.00 0.00 0.00 80 1022.9
20211203144228 35 227 1.0 1.0 0.00 0.00 0.00 80 1022.6
20211203143727 35 227 1.0 1.0 0.00 0.00 0.00 80 1022.8
20211203143226 35 226 2.0 2.0 0.00 0.00 0.00 80 1022.9
20211203142724 36 225 1.0 2.0 0.00 0.00 0.00 79 1022.5
20211203142225 35 223 1.0 2.0 0.00 0.00 0.00 80 1022.7
20211203141725 35 225 1.0 2.0 0.00 0.00 0.00 80 1022.8
20211203141223 35 223 1.0 1.0 0.00 0.00 0.00 81 1022.7
20211203140722 35 219 1.0 1.0 0.00 0.00 0.00 81 1022.4
20211203140221 36 206 1.0 1.0 0.00 0.00 0.00 80 1022.4
20211203135720 36 188 2.0 2.0 0.00 0.00 0.00 80 1022.8
20211203135218 36 178 2.0 2.0 0.00 0.00 0.00 79 1022.7
20211203134717 37 205 2.0 3.0 0.00 0.00 0.00 78 1022.6
20211203134215 37 184 3.0 3.0 0.00 0.00 0.00 78 1022.6
20211203133714 37 161 3.0 3.0 0.00 0.00 0.00 77 1022.7
20211203133215 37 201 3.0 3.0 0.00 0.00 0.00 77 1022.7
20211203132713 37 190 3.0 3.0 0.00 0.00 0.00 76 1022.7
20211203132211 37 220 1.0 2.0 0.00 0.00 0.00 77 1022.6
20211203131710 37 223 1.0 2.0 0.00 0.00 0.00 77 1022.9
20211203131210 36 215 2.0 2.0 0.00 0.00 0.00 78 1022.7
20211203130709 35 223 2.0 2.0 0.00 0.00 0.00 79 1023.1
20211203130208 35 218 1.0 1.0 0.00 0.00 0.00 79 1022.6
20211203125707 35 222 1.0 2.0 0.00 0.00 0.00 79 1022.5
20211203125206 35 210 2.0 2.0 0.00 0.00 0.00 78 1022.6
20211203124706 35 222 2.0 2.0 0.00 0.00 0.00 79 1022.8
20211203124205 35 217 3.0 3.0 0.00 0.00 0.00 78 1022.6
20211203123704 36 220 1.0 2.0 0.00 0.00 0.00 77 1022.7
20211203123205 35 231 2.0 2.0 0.00 0.00 0.00 79 1022.8
20211203122704 35 228 2.0 2.0 0.00 0.00 0.00 79 1022.9
20211203122203 35 222 1.0 1.0 0.00 0.00 0.00 79 1022.7
20211203121703 35 219 1.0 2.0 0.00 0.00 0.00 79 1022.8
20211203121201 35 226 2.0 2.0 0.00 0.00 0.00 79 1023.1
20211203120701 35 220 1.0 1.0 0.00 0.00 0.00 79 1022.9
20211203120201 34 225 2.0 2.0 0.00 0.00 0.00 80 1022.9
20211203115701 34 228 2.0 2.0 0.00 0.00 0.00 80 1023.1
20211203115200 34 215 3.0 5.0 0.00 0.00 0.00 80 1022.8
20211203114700 34 221 3.0 3.0 0.00 0.00 0.00 81 1023.2
20211203114159 33 223 2.0 2.0 0.00 0.00 0.00 81 1022.8
20211203113659 33 217 3.0 3.0 0.00 0.00 0.00 82 1023.3
20211203113157 34 223 2.0 2.0 0.00 0.00 0.00 82 1022.8
20211203112655 35 217 0.0 0.0 0.00 0.00 0.00 81 1022.9
20211203112153 34 214 1.0 1.0 0.00 0.00 0.00 80 1023.4
20211203111653 35 218 1.0 1.0 0.00 0.00 0.00 80 1023.3
20211203111152 35 224 0.0 0.0 0.00 0.00 0.00 80 1023.4
20211203110650 35 221 1.0 1.0 0.00 0.00 0.00 79 1023.2
20211203110150 35 223 1.0 1.0 0.00 0.00 0.00 78 1023.2
20211203105649 36 239 1.0 1.0 0.00 0.00 0.00 77 1023.2
20211203105149 36 251 1.0 1.0 0.00 0.00 0.00 77 1023.5
20211203104648 36 256 2.0 2.0 0.00 0.00 0.00 78 1023.3
20211203104147 36 260 1.0 1.0 0.00 0.00 0.00 78 1023.4
20211203103646 35 256 1.0 2.0 0.00 0.00 0.00 79 1023.4
20211203103145 35 241 0.0 0.0 0.00 0.00 0.00 79 1023.4
20211203102644 35 241 0.0 1.0 0.00 0.00 0.00 79 1023.5
20211203102142 35 245 1.0 1.0 0.00 0.00 0.00 80 1023.2
20211203101640 34 252 1.0 1.0 0.00 0.00 0.00 81 1023.5
20211203101140 34 240 0.0 0.0 0.00 0.00 0.00 81 1023.2
20211203100639 34 234 0.0 1.0 0.00 0.00 0.00 80 1023.3
20211203100138 35 229 0.0 1.0 0.00 0.00 0.00 79 1023.2
20211203095636 35 228 1.0 1.0 0.00 0.00 0.00 79 1023.3
20211203095137 35 225 0.0 1.0 0.00 0.00 0.00 79 1023.3
20211203094635 35 228 1.0 1.0 0.00 0.00 0.00 78 1023.2
20211203094135 36 229 1.0 1.0 0.00 0.00 0.00 78 1023.1
20211203093633 36 230 1.0 1.0 0.00 0.00 0.00 78 1023.1
20211203093133 36 233 0.0 0.0 0.00 0.00 0.00 78 1023.1
20211203092634 36 234 1.0 1.0 0.00 0.00 0.00 78 1022.8
20211203092133 36 232 0.0 1.0 0.00 0.00 0.00 78 1022.7
20211203091632 36 229 0.0 0.0 0.00 0.00 0.00 77 1022.8
20211203091132 37 229 0.0 0.0 0.00 0.00 0.00 77 1022.5
20211203090632 36 229 1.0 1.0 0.00 0.00 0.00 77 1022.7
20211203090132 35 233 1.0 1.0 0.00 0.00 0.00 78 1022.4
20211203085632 36 234 1.0 1.0 0.00 0.00 0.00 76 1022.7
20211203085131 37 238 1.0 1.0 0.00 0.00 0.00 75 1022.8
20211203084629 37 241 1.0 1.0 0.00 0.00 0.00 75 1022.8
20211203084129 37 241 0.0 0.0 0.00 0.00 0.00 74 1022.4
20211203083629 38 245 0.0 0.0 0.00 0.00 0.00 73 1022.6
20211203083128 39 250 0.0 0.0 0.00 0.00 0.00 72 1022.7
20211203082628 39 258 0.0 1.0 0.00 0.00 0.00 72 1022.5
20211203081624 39 278 2.0 2.0 0.00 0.00 0.00 72 1022.7
20211203081123 39 280 2.0 2.0 0.00 0.00 0.00 72 1022.7
20211203080623 39 303 2.0 2.0 0.00 0.00 0.00 71 1022.8
20211203080121 39 238 1.0 1.0 0.00 0.00 0.00 70 1022.8
20211203075620 39 229 0.0 0.0 0.00 0.00 0.00 71 1022.7
20211203075119 39 229 0.0 0.0 0.00 0.00 0.00 71 1022.7
20211203074617 39 228 0.0 1.0 0.00 0.00 0.00 71 1022.7
20211203074117 38 229 0.0 0.0 0.00 0.00 0.00 72 1022.6
20211203073617 39 227 0.0 0.0 0.00 0.00 0.00 71 1022.8
20211203073117 39 227 0.0 0.0 0.00 0.00 0.00 70 1023.1
20211203072617 39 227 0.0 1.0 0.00 0.00 0.00 70 1022.8
20211203072118 39 220 1.0 1.0 0.00 0.00 0.00 70 1022.8
20211203071617 39 223 0.0 1.0 0.00 0.00 0.00 71 1022.9
20211203071118 39 226 2.0 2.0 0.00 0.00 0.00 71 1023.1
20211203070617 38 225 1.0 2.0 0.00 0.00 0.00 72 1022.6
20211203070116 38 226 2.0 2.0 0.00 0.00 0.00 72 1022.9
20211203065615 38 226 2.0 2.0 0.00 0.00 0.00 72 1023.2
20211203065113 37 224 2.0 2.0 0.00 0.00 0.00 73 1023.3
20211203064611 37 222 1.0 1.0 0.00 0.00 0.00 74 1022.9
20211203064109 37 222 1.0 1.0 0.00 0.00 0.00 74 1023.1
20211203063609 37 222 0.0 1.0 0.00 0.00 0.00 74 1022.9
20211203063107 37 219 2.0 2.0 0.00 0.00 0.00 73 1022.9
20211203062607 36 222 1.0 1.0 0.00 0.00 0.00 74 1023.2
20211203062108 36 222 1.0 1.0 0.00 0.00 0.00 75 1023.1
20211203061607 36 222 1.0 1.0 0.00 0.00 0.00 75 1023.1
20211203061107 36 222 2.0 2.0 0.00 0.00 0.00 74 1022.9
20211203060607 36 219 3.0 3.0 0.00 0.00 0.00 76 1022.8
20211203060108 36 226 2.0 2.0 0.00 0.00 0.00 76 1023.1
20211203055608 36 230 1.0 1.0 0.00 0.00 0.00 76 1022.8
20211203055107 37 231 1.0 2.0 0.00 0.00 0.00 76 1022.9
20211203054608 37 232 1.0 1.0 0.00 0.00 0.00 74 1022.8
20211203054106 37 232 1.0 1.0 0.00 0.00 0.00 74 1023.1
20211203053606 38 235 2.0 2.0 0.00 0.00 0.00 74 1022.9
20211203053106 38 242 1.0 1.0 0.00 0.00 0.00 73 1022.9
20211203052605 38 243 1.0 1.0 0.00 0.00 0.00 72 1022.7
20211203052105 39 244 0.0 1.0 0.00 0.00 0.00 71 1023.1
20211203051605 39 245 0.0 1.0 0.00 0.00 0.00 69 1022.9
20211203051104 40 245 1.0 1.0 0.00 0.00 0.00 69 1022.9
20211203050604 40 249 1.0 2.0 0.00 0.00 0.00 68 1022.9
20211203050104 40 248 1.0 1.0 0.00 0.00 0.00 69 1023.1
20211203045603 39 251 1.0 1.0 0.00 0.00 0.00 69 1022.8
20211203045103 39 252 1.0 1.0 0.00 0.00 0.00 69 1023.1
20211203044601 39 248 1.0 1.0 0.00 0.00 0.00 69 1022.7
20211203044101 39 243 0.0 0.0 0.00 0.00 0.00 70 1022.7
20211203043601 39 243 0.0 0.0 0.00 0.00 0.00 69 1022.7
20211203043101 39 243 0.0 0.0 0.00 0.00 0.00 69 1022.7
20211203042601 39 243 0.0 1.0 0.00 0.00 0.00 69 1022.5
20211203042059 40 248 2.0 2.0 0.00 0.00 0.00 68 1022.7
20211203041559 40 237 1.0 1.0 0.00 0.00 0.00 67 1022.5
20211203041057 40 232 1.0 1.0 0.00 0.00 0.00 68 1022.6
20211203040557 39 231 0.0 0.0 0.00 0.00 0.00 69 1022.4
20211203040056 38 229 0.0 0.0 0.00 0.00 0.00 70 1022.5
20211203035555 39 228 0.0 0.0 0.00 0.00 0.00 69 1022.2
20211203035055 39 228 0.0 0.0 0.00 0.00 0.00 68 1022.6
20211203034554 40 225 0.0 0.0 0.00 0.00 0.00 67 1022.6
20211203034053 40 224 1.0 1.0 0.00 0.00 0.00 67 1022.2
20211203033552 40 227 1.0 1.0 0.00 0.00 0.00 67 1022.4
20211203033052 41 222 1.0 1.0 0.00 0.00 0.00 66 1022.2
20211203032550 41 228 0.0 0.0 0.00 0.00 0.00 65 1022.7
20211203032049 41 229 0.0 0.0 0.00 0.00 0.00 65 1022.6
20211203031549 41 228 1.0 1.0 0.00 0.00 0.00 65 1022.2
20211203031048 41 228 1.0 1.0 0.00 0.00 0.00 65 1022.6
20211203030548 42 228 1.0 1.0 0.00 0.00 0.00 63 1022.2
20211203030048 42 228 0.0 1.0 0.00 0.00 0.00 63 1022.2
20211203025547 42 228 0.0 1.0 0.00 0.00 0.00 63 1022.1
20211203025047 41 228 1.0 1.0 0.00 0.00 0.00 64 1022.2
20211203024547 41 228 1.0 2.0 0.00 0.00 0.00 64 1022.2
20211203024047 42 227 2.0 2.0 0.00 0.00 0.00 64 1022.0
20211203023548 42 225 2.0 2.0 0.00 0.00 0.00 64 1022.0
20211203023046 41 225 2.0 2.0 0.00 0.00 0.00 65 1022.0
20211203022545 41 226 1.0 1.0 0.00 0.00 0.00 65 1022.0
20211203022045 42 225 1.0 1.0 0.00 0.00 0.00 65 1022.2
20211203021543 42 228 2.0 3.0 0.00 0.00 0.00 65 1021.9
20211203021042 42 227 2.0 3.0 0.00 0.00 0.00 65 1022.0
20211203020541 42 227 2.0 2.0 0.00 0.00 0.00 64 1022.2
20211203020041 42 224 3.0 3.0 0.00 0.00 0.00 64 1022.5
20211203015541 43 226 2.0 2.0 0.00 0.00 0.00 64 1022.2
20211203015039 43 224 2.0 2.0 0.00 0.00 0.00 64 1022.1
20211203014537 43 231 1.0 1.0 0.00 0.00 0.00 64 1022.2
20211203014038 43 228 2.0 2.0 0.00 0.00 0.00 65 1022.4
20211203013537 43 229 1.0 1.0 0.00 0.00 0.00 65 1022.2
20211203013037 43 231 2.0 2.0 0.00 0.00 0.00 65 1022.5
20211203012536 43 227 2.0 2.0 0.00 0.00 0.00 64 1022.4
20211203012035 43 229 1.0 1.0 0.00 0.00 0.00 63 1022.4
20211203011535 44 231 2.0 2.0 0.00 0.00 0.00 63 1022.5
20211203011035 44 233 1.0 1.0 0.00 0.00 0.00 62 1022.2
20211203010534 44 235 2.0 2.0 0.00 0.00 0.00 63 1022.6
20211203010035 44 229 1.0 2.0 0.00 0.00 0.00 64 1022.4
20211203005534 45 226 3.0 3.0 0.00 0.00 0.00 63 1022.5
20211203005033 44 221 1.0 1.0 0.00 0.00 0.00 64 1022.5
20211203004533 45 194 2.0 2.0 0.00 0.00 0.00 64 1022.5
20211203004033 45 254 1.0 1.0 0.00 0.00 0.00 62 1022.5
20211203003533 45 7 2.0 2.0 0.00 0.00 0.00 62 1022.2
20211203003033 46 341 3.0 5.0 0.00 0.00 0.00 61 1022.4
20211203002533 46 268 1.0 2.0 0.00 0.00 0.00 61 1022.4
20211203002032 46 268 1.0 1.0 0.00 0.00 0.00 60 1022.4
20211203001531 46 358 3.0 5.0 0.00 0.00 0.00 60 1022.1
20211203001031 46 304 2.0 2.0 0.00 0.00 0.00 60 1022.5
20211203000529 47 302 2.0 2.0 0.00 0.00 0.00 59 1022.4
20211203000028 47 305 4.0 5.0 0.00 0.00 0.00 58 1022.2
20211202235528 47 342 5.0 6.0 0.00 0.00 0.00 58 1022.5
20211202235027 48 341 5.0 7.0 0.00 0.00 0.00 58 1022.4
20211202234525 48 319 4.0 5.0 0.00 0.00 0.00 57 1022.4
20211202234024 48 300 6.0 7.0 0.00 0.00 0.00 57 1022.4
20211202233523 49 280 3.0 3.0 0.00 0.00 0.00 57 1022.4
20211202233023 49 304 4.0 6.0 0.00 0.00 0.00 56 1022.2
20211202232522 50 327 4.0 6.0 0.00 0.00 0.00 55 1022.4
20211202232021 50 299 5.0 7.0 0.00 0.00 0.00 55 1022.4
20211202231521 50 305 5.0 7.0 0.00 0.00 0.00 55 1022.2
20211202231020 51 310 4.0 5.0 0.00 0.00 0.00 54 1022.4
20211202230519 51 286 2.0 2.0 0.00 0.00 0.00 54 1022.1
20211202230018 51 52 3.0 6.0 0.00 0.00 0.00 53 1022.2
20211202225517 51 10 4.0 6.0 0.00 0.00 0.00 52 1021.9
20211202225016 52 321 5.0 6.0 0.00 0.00 0.00 51 1021.8
20211202224515 52 329 4.0 5.0 0.00 0.00 0.00 51 1021.8
20211202224016 53 330 8.0 9.0 0.00 0.00 0.00 51 1022.1
20211202223514 54 5 3.0 3.0 0.00 0.00 0.00 50 1021.9
20211202223014 55 280 4.0 6.0 0.00 0.00 0.00 48 1021.7
20211202222512 57 4 3.0 5.0 0.00 0.00 0.00 37 1021.6
20211202222012 58 188 1.0 1.0 0.00 0.00 0.00 36 1021.8
20211202221511 59 203 2.0 2.0 0.00 0.00 0.00 36 1021.6
20211202221010 60 234 0.0 0.0 0.00 0.00 0.00 34 1021.7
20211202220510 60 220 2.0 3.0 0.00 0.00 0.00 34 1021.6
20211202220009 61 226 1.0 2.0 0.00 0.00 0.00 34 1021.6